sensor_id;sensor_type;location;lat;lon;timestamp;P1;durP1;ratioP1;P2;durP2;ratioP2
62509;SDS011;48558;48.242;11.654;2023-04-28T00:04:05;1.70;;;1.60;;
62509;SDS011;48558;48.242;11.654;2023-04-28T00:08:19;1.20;;;1.20;;
62509;SDS011;48558;48.242;11.654;2023-04-28T00:12:33;1.52;;;1.42;;
62509;SDS011;48558;48.242;11.654;2023-04-28T00:16:45;1.70;;;1.60;;
62509;SDS011;48558;48.242;11.654;2023-04-28T00:20:59;1.92;;;1.65;;
62509;SDS011;48558;48.242;11.654;2023-04-28T00:25:22;7.28;;;1.38;;
62509;SDS011;48558;48.242;11.654;2023-04-28T00:29:45;1.58;;;1.50;;
62509;SDS011;48558;48.242;11.654;2023-04-28T00:33:58;1.38;;;1.27;;
62509;SDS011;48558;48.242;11.654;2023-04-28T00:38:10;1.73;;;1.63;;
62509;SDS011;48558;48.242;11.654;2023-04-28T00:42:23;1.88;;;1.52;;
62509;SDS011;48558;48.242;11.654;2023-04-28T00:46:35;1.40;;;1.27;;
62509;SDS011;48558;48.242;11.654;2023-04-28T00:50:58;1.95;;;1.45;;
62509;SDS011;48558;48.242;11.654;2023-04-28T00:55:10;2.05;;;1.85;;
62509;SDS011;48558;48.242;11.654;2023-04-28T00:59:27;1.85;;;1.73;;
62509;SDS011;48558;48.242;11.654;2023-04-28T01:03:41;1.00;;;1.00;;
62509;SDS011;48558;48.242;11.654;2023-04-28T01:07:54;1.58;;;1.27;;
62509;SDS011;48558;48.242;11.654;2023-04-28T01:12:16;1.27;;;1.25;;
62509;SDS011;48558;48.242;11.654;2023-04-28T01:16:28;2.55;;;1.73;;
62509;SDS011;48558;48.242;11.654;2023-04-28T01:20:43;1.52;;;1.33;;
62509;SDS011;48558;48.242;11.654;2023-04-28T01:24:56;1.73;;;1.52;;
62509;SDS011;48558;48.242;11.654;2023-04-28T01:29:10;1.63;;;1.48;;
62509;SDS011;48558;48.242;11.654;2023-04-28T01:33:23;1.05;;;1.05;;
62509;SDS011;48558;48.242;11.654;2023-04-28T01:37:36;1.50;;;1.40;;
62509;SDS011;48558;48.242;11.654;2023-04-28T01:41:55;2.58;;;1.70;;
62509;SDS011;48558;48.242;11.654;2023-04-28T01:46:08;1.15;;;1.13;;
62509;SDS011;48558;48.242;11.654;2023-04-28T01:50:31;1.70;;;1.60;;
62509;SDS011;48558;48.242;11.654;2023-04-28T01:54:54;1.77;;;1.67;;
62509;SDS011;48558;48.242;11.654;2023-04-28T01:59:06;1.65;;;1.55;;
62509;SDS011;48558;48.242;11.654;2023-04-28T02:03:19;1.98;;;1.48;;
62509;SDS011;48558;48.242;11.654;2023-04-28T02:07:32;1.83;;;1.70;;
62509;SDS011;48558;48.242;11.654;2023-04-28T02:11:54;1.42;;;1.33;;
62509;SDS011;48558;48.242;11.654;2023-04-28T02:16:17;1.88;;;1.20;;
62509;SDS011;48558;48.242;11.654;2023-04-28T02:20:29;1.52;;;1.42;;
62509;SDS011;48558;48.242;11.654;2023-04-28T02:24:43;8.32;;;1.90;;
62509;SDS011;48558;48.242;11.654;2023-04-28T02:28:56;1.63;;;1.52;;
62509;SDS011;48558;48.242;11.654;2023-04-28T02:33:08;2.38;;;1.77;;
62509;SDS011;48558;48.242;11.654;2023-04-28T02:37:21;1.55;;;1.45;;
62509;SDS011;48558;48.242;11.654;2023-04-28T02:41:33;3.13;;;1.65;;
62509;SDS011;48558;48.242;11.654;2023-04-28T02:45:46;1.38;;;1.27;;
62509;SDS011;48558;48.242;11.654;2023-04-28T02:49:58;2.80;;;2.13;;
62509;SDS011;48558;48.242;11.654;2023-04-28T02:54:11;1.52;;;1.35;;
62509;SDS011;48558;48.242;11.654;2023-04-28T02:58:33;1.58;;;1.45;;
62509;SDS011;48558;48.242;11.654;2023-04-28T03:02:49;1.55;;;1.45;;
62509;SDS011;48558;48.242;11.654;2023-04-28T03:07:02;1.60;;;1.50;;
62509;SDS011;48558;48.242;11.654;2023-04-28T03:11:14;1.25;;;1.17;;
62509;SDS011;48558;48.242;11.654;2023-04-28T03:15:37;1.30;;;1.27;;
62509;SDS011;48558;48.242;11.654;2023-04-28T03:19:49;1.60;;;1.50;;
62509;SDS011;48558;48.242;11.654;2023-04-28T03:24:02;2.35;;;1.63;;
62509;SDS011;48558;48.242;11.654;2023-04-28T03:28:16;1.42;;;1.33;;
62509;SDS011;48558;48.242;11.654;2023-04-28T03:32:28;1.45;;;1.35;;
62509;SDS011;48558;48.242;11.654;2023-04-28T03:36:41;1.73;;;1.60;;
62509;SDS011;48558;48.242;11.654;2023-04-28T03:40:53;1.38;;;1.30;;
62509;SDS011;48558;48.242;11.654;2023-04-28T03:45:06;1.55;;;1.45;;
62509;SDS011;48558;48.242;11.654;2023-04-28T03:49:19;1.88;;;1.77;;
62509;SDS011;48558;48.242;11.654;2023-04-28T03:53:32;1.98;;;1.77;;
62509;SDS011;48558;48.242;11.654;2023-04-28T03:57:44;1.52;;;1.42;;
62509;SDS011;48558;48.242;11.654;2023-04-28T04:01:57;1.63;;;1.52;;
62509;SDS011;48558;48.242;11.654;2023-04-28T04:06:10;1.20;;;1.20;;
62509;SDS011;48558;48.242;11.654;2023-04-28T04:10:22;1.23;;;1.13;;
62509;SDS011;48558;48.242;11.654;2023-04-28T04:14:35;1.40;;;1.30;;
62509;SDS011;48558;48.242;11.654;2023-04-28T04:18:47;1.58;;;1.48;;
62509;SDS011;48558;48.242;11.654;2023-04-28T04:23:01;1.42;;;1.33;;
62509;SDS011;48558;48.242;11.654;2023-04-28T04:27:14;1.20;;;1.20;;
62509;SDS011;48558;48.242;11.654;2023-04-28T04:31:27;1.38;;;1.15;;
62509;SDS011;48558;48.242;11.654;2023-04-28T04:35:39;1.35;;;1.25;;
62509;SDS011;48558;48.242;11.654;2023-04-28T04:39:52;1.30;;;1.20;;
62509;SDS011;48558;48.242;11.654;2023-04-28T04:44:04;1.50;;;1.40;;
62509;SDS011;48558;48.242;11.654;2023-04-28T04:48:17;1.25;;;1.20;;
62509;SDS011;48558;48.242;11.654;2023-04-28T04:52:30;1.55;;;1.45;;
62509;SDS011;48558;48.242;11.654;2023-04-28T04:56:52;1.30;;;1.30;;
62509;SDS011;48558;48.242;11.654;2023-04-28T05:01:05;1.15;;;1.10;;
62509;SDS011;48558;48.242;11.654;2023-04-28T05:05:17;1.52;;;1.42;;
62509;SDS011;48558;48.242;11.654;2023-04-28T05:09:32;1.60;;;1.50;;
62509;SDS011;48558;48.242;11.654;2023-04-28T05:13:44;1.40;;;1.30;;
62509;SDS011;48558;48.242;11.654;2023-04-28T05:17:57;1.58;;;1.48;;
62509;SDS011;48558;48.242;11.654;2023-04-28T05:22:10;1.35;;;1.25;;
62509;SDS011;48558;48.242;11.654;2023-04-28T05:26:23;1.25;;;1.17;;
62509;SDS011;48558;48.242;11.654;2023-04-28T05:30:35;1.40;;;1.13;;
62509;SDS011;48558;48.242;11.654;2023-04-28T05:34:48;1.50;;;1.40;;
62509;SDS011;48558;48.242;11.654;2023-04-28T05:39:00;1.52;;;1.42;;
62509;SDS011;48558;48.242;11.654;2023-04-28T05:43:13;1.13;;;1.10;;
62509;SDS011;48558;48.242;11.654;2023-04-28T05:47:35;1.80;;;1.70;;
62509;SDS011;48558;48.242;11.654;2023-04-28T05:51:48;1.10;;;1.10;;
62509;SDS011;48558;48.242;11.654;2023-04-28T05:56:00;1.63;;;1.52;;
62509;SDS011;48558;48.242;11.654;2023-04-28T06:00:13;1.67;;;1.58;;
62509;SDS011;48558;48.242;11.654;2023-04-28T06:04:26;0.95;;;0.95;;
62509;SDS011;48558;48.242;11.654;2023-04-28T06:08:39;1.67;;;1.58;;
62509;SDS011;48558;48.242;11.654;2023-04-28T06:12:52;1.25;;;1.25;;
62509;SDS011;48558;48.242;11.654;2023-04-28T06:17:15;1.52;;;1.40;;
62509;SDS011;48558;48.242;11.654;2023-04-28T06:21:27;3.70;;;1.33;;
62509;SDS011;48558;48.242;11.654;2023-04-28T06:25:40;1.17;;;1.08;;
62509;SDS011;48558;48.242;11.654;2023-04-28T06:29:52;1.10;;;1.08;;
62509;SDS011;48558;48.242;11.654;2023-04-28T06:34:05;1.67;;;1.58;;
62509;SDS011;48558;48.242;11.654;2023-04-28T06:38:18;1.10;;;1.10;;
62509;SDS011;48558;48.242;11.654;2023-04-28T06:42:40;0.98;;;0.98;;
62509;SDS011;48558;48.242;11.654;2023-04-28T06:46:53;1.02;;;1.02;;
62509;SDS011;48558;48.242;11.654;2023-04-28T06:51:06;1.65;;;1.15;;
62509;SDS011;48558;48.242;11.654;2023-04-28T06:55:18;1.10;;;1.08;;
62509;SDS011;48558;48.242;11.654;2023-04-28T06:59:31;1.83;;;1.30;;
62509;SDS011;48558;48.242;11.654;2023-04-28T07:03:43;1.00;;;1.00;;
62509;SDS011;48558;48.242;11.654;2023-04-28T07:07:56;0.88;;;0.88;;
62509;SDS011;48558;48.242;11.654;2023-04-28T07:12:09;0.93;;;0.93;;
62509;SDS011;48558;48.242;11.654;2023-04-28T07:16:22;1.13;;;1.10;;
62509;SDS011;48558;48.242;11.654;2023-04-28T07:20:34;0.60;;;0.60;;
62509;SDS011;48558;48.242;11.654;2023-04-28T07:24:47;0.93;;;0.93;;
62509;SDS011;48558;48.242;11.654;2023-04-28T07:28:59;0.90;;;0.90;;
62509;SDS011;48558;48.242;11.654;2023-04-28T07:33:12;1.30;;;1.15;;
62509;SDS011;48558;48.242;11.654;2023-04-28T07:37:24;1.00;;;1.00;;
62509;SDS011;48558;48.242;11.654;2023-04-28T07:41:37;1.08;;;1.08;;
62509;SDS011;48558;48.242;11.654;2023-04-28T07:45:49;0.90;;;0.90;;
62509;SDS011;48558;48.242;11.654;2023-04-28T07:50:03;0.90;;;0.90;;
62509;SDS011;48558;48.242;11.654;2023-04-28T07:54:26;1.25;;;1.15;;
62509;SDS011;48558;48.242;11.654;2023-04-28T07:58:45;1.02;;;1.02;;
62509;SDS011;48558;48.242;11.654;2023-04-28T08:02:58;0.98;;;0.98;;
62509;SDS011;48558;48.242;11.654;2023-04-28T08:07:21;1.13;;;1.13;;
62509;SDS011;48558;48.242;11.654;2023-04-28T08:11:33;0.80;;;0.80;;
62509;SDS011;48558;48.242;11.654;2023-04-28T08:15:46;0.85;;;0.85;;
62509;SDS011;48558;48.242;11.654;2023-04-28T08:19:59;0.90;;;0.90;;
62509;SDS011;48558;48.242;11.654;2023-04-28T08:24:12;0.85;;;0.85;;
62509;SDS011;48558;48.242;11.654;2023-04-28T08:28:25;0.85;;;0.85;;
62509;SDS011;48558;48.242;11.654;2023-04-28T08:32:39;0.93;;;0.93;;
62509;SDS011;48558;48.242;11.654;2023-04-28T08:36:52;0.63;;;0.63;;
62509;SDS011;48558;48.242;11.654;2023-04-28T08:41:04;1.20;;;0.90;;
62509;SDS011;48558;48.242;11.654;2023-04-28T08:45:17;0.50;;;0.50;;
62509;SDS011;48558;48.242;11.654;2023-04-28T08:49:32;0.60;;;0.60;;
62509;SDS011;48558;48.242;11.654;2023-04-28T08:53:48;0.82;;;0.68;;
62509;SDS011;48558;48.242;11.654;2023-04-28T08:58:05;1.00;;;0.90;;
62509;SDS011;48558;48.242;11.654;2023-04-28T09:02:19;0.70;;;0.70;;
62509;SDS011;48558;48.242;11.654;2023-04-28T09:06:35;0.30;;;0.30;;
62509;SDS011;48558;48.242;11.654;2023-04-28T09:11:05;0.70;;;0.70;;
62509;SDS011;48558;48.242;11.654;2023-04-28T09:15:34;1.33;;;1.00;;
62509;SDS011;48558;48.242;11.654;2023-04-28T09:24:01;0.40;;;0.40;;
62509;SDS011;48558;48.242;11.654;2023-04-28T09:28:20;0.80;;;0.70;;
62509;SDS011;48558;48.242;11.654;2023-04-28T09:32:33;0.50;;;0.50;;
62509;SDS011;48558;48.242;11.654;2023-04-28T09:36:55;0.80;;;0.80;;
62509;SDS011;48558;48.242;11.654;2023-04-28T09:41:11;1.00;;;0.75;;
62509;SDS011;48558;48.242;11.654;2023-04-28T09:45:23;0.75;;;0.75;;
62509;SDS011;48558;48.242;11.654;2023-04-28T09:49:54;0.57;;;0.57;;
62509;SDS011;48558;48.242;11.654;2023-04-28T09:54:08;0.70;;;0.70;;
62509;SDS011;48558;48.242;11.654;2023-04-28T09:58:23;0.70;;;0.70;;
62509;SDS011;48558;48.242;11.654;2023-04-28T10:02:37;0.60;;;0.60;;
62509;SDS011;48558;48.242;11.654;2023-04-28T10:06:52;0.55;;;0.55;;
62509;SDS011;48558;48.242;11.654;2023-04-28T10:11:05;0.60;;;0.60;;
62509;SDS011;48558;48.242;11.654;2023-04-28T10:15:17;0.60;;;0.60;;
62509;SDS011;48558;48.242;11.654;2023-04-28T10:19:42;0.80;;;0.80;;
62509;SDS011;48558;48.242;11.654;2023-04-28T10:24:09;0.30;;;0.30;;
62509;SDS011;48558;48.242;11.654;2023-04-28T10:28:43;0.50;;;0.50;;
62509;SDS011;48558;48.242;11.654;2023-04-28T10:37:20;0.50;;;0.50;;
62509;SDS011;48558;48.242;11.654;2023-04-28T10:47:14;0.73;;;0.73;;
62509;SDS011;48558;48.242;11.654;2023-04-28T10:51:27;0.60;;;0.60;;
62509;SDS011;48558;48.242;11.654;2023-04-28T10:55:39;0.40;;;0.40;;
62509;SDS011;48558;48.242;11.654;2023-04-28T10:59:52;0.30;;;0.30;;
62509;SDS011;48558;48.242;11.654;2023-04-28T11:05:09;0.73;;;0.50;;
62509;SDS011;48558;48.242;11.654;2023-04-28T11:14:40;0.30;;;0.30;;
62509;SDS011;48558;48.242;11.654;2023-04-28T11:23:07;3.13;;;0.88;;
62509;SDS011;48558;48.242;11.654;2023-04-28T11:27:28;0.85;;;0.50;;
62509;SDS011;48558;48.242;11.654;2023-04-28T11:31:49;0.35;;;0.35;;
62509;SDS011;48558;48.242;11.654;2023-04-28T11:36:03;0.30;;;0.30;;
62509;SDS011;48558;48.242;11.654;2023-04-28T11:40:16;0.38;;;0.38;;
62509;SDS011;48558;48.242;11.654;2023-04-28T11:44:30;0.75;;;0.60;;
62509;SDS011;48558;48.242;11.654;2023-04-28T11:48:43;0.88;;;0.40;;
62509;SDS011;48558;48.242;11.654;2023-04-28T11:52:56;0.45;;;0.28;;
62509;SDS011;48558;48.242;11.654;2023-04-28T11:57:18;0.57;;;0.57;;
62509;SDS011;48558;48.242;11.654;2023-04-28T12:01:32;0.30;;;0.30;;
62509;SDS011;48558;48.242;11.654;2023-04-28T12:05:49;0.20;;;0.20;;
62509;SDS011;48558;48.242;11.654;2023-04-28T12:10:11;0.20;;;0.20;;
62509;SDS011;48558;48.242;11.654;2023-04-28T12:14:59;0.47;;;0.47;;
62509;SDS011;48558;48.242;11.654;2023-04-28T12:19:17;0.40;;;0.40;;
62509;SDS011;48558;48.242;11.654;2023-04-28T12:23:31;0.30;;;0.30;;
62509;SDS011;48558;48.242;11.654;2023-04-28T12:27:59;0.50;;;0.50;;
62509;SDS011;48558;48.242;11.654;2023-04-28T12:32:13;0.32;;;0.32;;
62509;SDS011;48558;48.242;11.654;2023-04-28T12:36:27;0.50;;;0.50;;
62509;SDS011;48558;48.242;11.654;2023-04-28T12:40:41;0.73;;;0.60;;
62509;SDS011;48558;48.242;11.654;2023-04-28T12:44:54;0.50;;;0.50;;
62509;SDS011;48558;48.242;11.654;2023-04-28T12:49:16;0.40;;;0.40;;
62509;SDS011;48558;48.242;11.654;2023-04-28T12:53:29;0.45;;;0.40;;
62509;SDS011;48558;48.242;11.654;2023-04-28T12:57:45;0.77;;;0.77;;
62509;SDS011;48558;48.242;11.654;2023-04-28T13:02:08;0.77;;;0.73;;
62509;SDS011;48558;48.242;11.654;2023-04-28T13:06:20;0.50;;;0.50;;
62509;SDS011;48558;48.242;11.654;2023-04-28T13:10:33;0.55;;;0.55;;
62509;SDS011;48558;48.242;11.654;2023-04-28T13:14:46;0.50;;;0.50;;
62509;SDS011;48558;48.242;11.654;2023-04-28T13:18:59;0.68;;;0.68;;
62509;SDS011;48558;48.242;11.654;2023-04-28T13:23:13;0.40;;;0.40;;
62509;SDS011;48558;48.242;11.654;2023-04-28T13:27:33;0.20;;;0.20;;
62509;SDS011;48558;48.242;11.654;2023-04-28T13:31:48;0.38;;;0.38;;
62509;SDS011;48558;48.242;11.654;2023-04-28T13:36:00;0.40;;;0.40;;
62509;SDS011;48558;48.242;11.654;2023-04-28T13:40:13;0.40;;;0.40;;
62509;SDS011;48558;48.242;11.654;2023-04-28T13:44:25;0.63;;;0.63;;
62509;SDS011;48558;48.242;11.654;2023-04-28T13:48:38;0.88;;;0.68;;
62509;SDS011;48558;48.242;11.654;2023-04-28T13:52:51;0.60;;;0.57;;
62509;SDS011;48558;48.242;11.654;2023-04-28T13:57:05;1.35;;;0.75;;
62509;SDS011;48558;48.242;11.654;2023-04-28T14:01:17;1.02;;;0.70;;
62509;SDS011;48558;48.242;11.654;2023-04-28T14:05:30;0.30;;;0.30;;
62509;SDS011;48558;48.242;11.654;2023-04-28T14:09:56;0.30;;;0.30;;
62509;SDS011;48558;48.242;11.654;2023-04-28T14:14:08;0.30;;;0.30;;
62509;SDS011;48558;48.242;11.654;2023-04-28T14:18:21;0.30;;;0.30;;
62509;SDS011;48558;48.242;11.654;2023-04-28T14:22:33;0.22;;;0.22;;
62509;SDS011;48558;48.242;11.654;2023-04-28T14:26:46;0.43;;;0.30;;
62509;SDS011;48558;48.242;11.654;2023-04-28T14:31:03;0.30;;;0.30;;
62509;SDS011;48558;48.242;11.654;2023-04-28T14:35:19;0.30;;;0.30;;
62509;SDS011;48558;48.242;11.654;2023-04-28T14:39:33;0.40;;;0.40;;
62509;SDS011;48558;48.242;11.654;2023-04-28T14:43:47;0.43;;;0.43;;
62509;SDS011;48558;48.242;11.654;2023-04-28T14:47:59;0.20;;;0.20;;
62509;SDS011;48558;48.242;11.654;2023-04-28T14:52:12;0.30;;;0.30;;
62509;SDS011;48558;48.242;11.654;2023-04-28T14:56:25;0.30;;;0.30;;
62509;SDS011;48558;48.242;11.654;2023-04-28T15:00:37;0.63;;;0.50;;
62509;SDS011;48558;48.242;11.654;2023-04-28T15:04:50;0.30;;;0.30;;
62509;SDS011;48558;48.242;11.654;2023-04-28T15:09:04;0.35;;;0.35;;
62509;SDS011;48558;48.242;11.654;2023-04-28T15:13:17;0.35;;;0.35;;
62509;SDS011;48558;48.242;11.654;2023-04-28T15:17:30;0.22;;;0.22;;
62509;SDS011;48558;48.242;11.654;2023-04-28T15:21:42;0.50;;;0.50;;
62509;SDS011;48558;48.242;11.654;2023-04-28T15:25:55;0.40;;;0.40;;
62509;SDS011;48558;48.242;11.654;2023-04-28T15:30:07;0.45;;;0.45;;
62509;SDS011;48558;48.242;11.654;2023-04-28T15:34:21;0.60;;;0.60;;
62509;SDS011;48558;48.242;11.654;2023-04-28T15:38:34;0.45;;;0.45;;
62509;SDS011;48558;48.242;11.654;2023-04-28T15:42:47;0.20;;;0.20;;
62509;SDS011;48558;48.242;11.654;2023-04-28T15:47:00;0.55;;;0.55;;
62509;SDS011;48558;48.242;11.654;2023-04-28T15:51:12;2.28;;;0.95;;
62509;SDS011;48558;48.242;11.654;2023-04-28T16:00:13;0.80;;;0.80;;
62509;SDS011;48558;48.242;11.654;2023-04-28T16:04:27;0.70;;;0.70;;
62509;SDS011;48558;48.242;11.654;2023-04-28T16:08:40;0.38;;;0.38;;
62509;SDS011;48558;48.242;11.654;2023-04-28T16:12:52;0.28;;;0.28;;
62509;SDS011;48558;48.242;11.654;2023-04-28T16:17:05;0.70;;;0.68;;
62509;SDS011;48558;48.242;11.654;2023-04-28T16:21:18;0.50;;;0.50;;
62509;SDS011;48558;48.242;11.654;2023-04-28T16:25:31;0.32;;;0.32;;
62509;SDS011;48558;48.242;11.654;2023-04-28T16:29:43;0.50;;;0.50;;
62509;SDS011;48558;48.242;11.654;2023-04-28T16:33:56;0.10;;;0.10;;
62509;SDS011;48558;48.242;11.654;2023-04-28T16:38:10;0.50;;;0.50;;
62509;SDS011;48558;48.242;11.654;2023-04-28T16:42:32;0.30;;;0.30;;
62509;SDS011;48558;48.242;11.654;2023-04-28T16:46:44;0.73;;;0.45;;
62509;SDS011;48558;48.242;11.654;2023-04-28T16:50:58;0.50;;;0.50;;
62509;SDS011;48558;48.242;11.654;2023-04-28T16:55:11;0.50;;;0.50;;
62509;SDS011;48558;48.242;11.654;2023-04-28T16:59:33;0.57;;;0.57;;
62509;SDS011;48558;48.242;11.654;2023-04-28T17:03:48;0.40;;;0.40;;
62509;SDS011;48558;48.242;11.654;2023-04-28T17:08:02;0.38;;;0.38;;
62509;SDS011;48558;48.242;11.654;2023-04-28T17:12:15;1.65;;;0.40;;
62509;SDS011;48558;48.242;11.654;2023-04-28T17:16:32;0.40;;;0.40;;
62509;SDS011;48558;48.242;11.654;2023-04-28T17:20:55;0.35;;;0.35;;
62509;SDS011;48558;48.242;11.654;2023-04-28T17:25:07;0.38;;;0.38;;
62509;SDS011;48558;48.242;11.654;2023-04-28T17:29:21;0.47;;;0.30;;
62509;SDS011;48558;48.242;11.654;2023-04-28T17:33:35;0.20;;;0.20;;
62509;SDS011;48558;48.242;11.654;2023-04-28T17:37:48;0.38;;;0.38;;
62509;SDS011;48558;48.242;11.654;2023-04-28T17:42:00;0.22;;;0.22;;
62509;SDS011;48558;48.242;11.654;2023-04-28T17:46:13;0.32;;;0.32;;
62509;SDS011;48558;48.242;11.654;2023-04-28T17:50:28;0.40;;;0.40;;
62509;SDS011;48558;48.242;11.654;2023-04-28T17:54:41;0.52;;;0.52;;
62509;SDS011;48558;48.242;11.654;2023-04-28T17:58:54;5.45;;;2.47;;
62509;SDS011;48558;48.242;11.654;2023-04-28T18:03:07;0.57;;;0.57;;
62509;SDS011;48558;48.242;11.654;2023-04-28T18:07:19;1.17;;;1.17;;
62509;SDS011;48558;48.242;11.654;2023-04-28T18:11:42;0.55;;;0.55;;
62509;SDS011;48558;48.242;11.654;2023-04-28T18:15:55;0.63;;;0.63;;
62509;SDS011;48558;48.242;11.654;2023-04-28T18:20:08;0.95;;;0.73;;
62509;SDS011;48558;48.242;11.654;2023-04-28T18:24:28;0.50;;;0.50;;
62509;SDS011;48558;48.242;11.654;2023-04-28T18:28:44;0.80;;;0.80;;
62509;SDS011;48558;48.242;11.654;2023-04-28T18:32:58;1.10;;;1.10;;
62509;SDS011;48558;48.242;11.654;2023-04-28T18:37:14;1.85;;;0.85;;
62509;SDS011;48558;48.242;11.654;2023-04-28T18:41:26;2.22;;;2.03;;
62509;SDS011;48558;48.242;11.654;2023-04-28T18:45:39;1.33;;;1.23;;
62509;SDS011;48558;48.242;11.654;2023-04-28T18:49:54;0.98;;;0.98;;
62509;SDS011;48558;48.242;11.654;2023-04-28T18:54:07;1.20;;;1.05;;
62509;SDS011;48558;48.242;11.654;2023-04-28T18:58:29;0.93;;;0.93;;
62509;SDS011;48558;48.242;11.654;2023-04-28T19:02:42;1.10;;;1.10;;
62509;SDS011;48558;48.242;11.654;2023-04-28T19:07:05;1.05;;;0.88;;
62509;SDS011;48558;48.242;11.654;2023-04-28T19:11:17;1.55;;;0.77;;
62509;SDS011;48558;48.242;11.654;2023-04-28T19:15:30;0.60;;;0.60;;
62509;SDS011;48558;48.242;11.654;2023-04-28T19:19:44;0.80;;;0.80;;
62509;SDS011;48558;48.242;11.654;2023-04-28T19:23:56;0.60;;;0.60;;
62509;SDS011;48558;48.242;11.654;2023-04-28T19:28:19;0.47;;;0.47;;
62509;SDS011;48558;48.242;11.654;2023-04-28T19:32:31;0.50;;;0.50;;
62509;SDS011;48558;48.242;11.654;2023-04-28T19:36:44;0.43;;;0.43;;
62509;SDS011;48558;48.242;11.654;2023-04-28T19:40:57;0.60;;;0.60;;
62509;SDS011;48558;48.242;11.654;2023-04-28T19:45:11;0.90;;;0.90;;
62509;SDS011;48558;48.242;11.654;2023-04-28T19:49:35;0.52;;;0.52;;
62509;SDS011;48558;48.242;11.654;2023-04-28T19:53:47;0.60;;;0.60;;
62509;SDS011;48558;48.242;11.654;2023-04-28T19:58:02;0.50;;;0.50;;
62509;SDS011;48558;48.242;11.654;2023-04-28T20:02:15;0.68;;;0.68;;
62509;SDS011;48558;48.242;11.654;2023-04-28T20:06:28;0.77;;;0.50;;
62509;SDS011;48558;48.242;11.654;2023-04-28T20:10:51;0.10;;;0.10;;
62509;SDS011;48558;48.242;11.654;2023-04-28T20:15:07;0.47;;;0.47;;
62509;SDS011;48558;48.242;11.654;2023-04-28T20:19:20;0.17;;;0.17;;
62509;SDS011;48558;48.242;11.654;2023-04-28T20:23:42;0.20;;;0.20;;
62509;SDS011;48558;48.242;11.654;2023-04-28T20:27:55;0.40;;;0.40;;
62509;SDS011;48558;48.242;11.654;2023-04-28T20:32:14;0.20;;;0.20;;
62509;SDS011;48558;48.242;11.654;2023-04-28T20:36:26;0.28;;;0.28;;
62509;SDS011;48558;48.242;11.654;2023-04-28T20:40:39;0.47;;;0.45;;
62509;SDS011;48558;48.242;11.654;2023-04-28T20:44:51;0.43;;;0.43;;
62509;SDS011;48558;48.242;11.654;2023-04-28T20:49:04;0.40;;;0.40;;
62509;SDS011;48558;48.242;11.654;2023-04-28T20:53:16;0.32;;;0.32;;
62509;SDS011;48558;48.242;11.654;2023-04-28T20:57:39;0.52;;;0.52;;
62509;SDS011;48558;48.242;11.654;2023-04-28T21:01:51;0.65;;;0.35;;
62509;SDS011;48558;48.242;11.654;2023-04-28T21:06:04;0.80;;;0.80;;
62509;SDS011;48558;48.242;11.654;2023-04-28T21:10:17;0.60;;;0.60;;
62509;SDS011;48558;48.242;11.654;2023-04-28T21:14:29;0.60;;;0.60;;
62509;SDS011;48558;48.242;11.654;2023-04-28T21:18:45;0.25;;;0.25;;
62509;SDS011;48558;48.242;11.654;2023-04-28T21:22:58;0.28;;;0.28;;
62509;SDS011;48558;48.242;11.654;2023-04-28T21:27:10;0.45;;;0.45;;
62509;SDS011;48558;48.242;11.654;2023-04-28T21:31:23;0.30;;;0.30;;
62509;SDS011;48558;48.242;11.654;2023-04-28T21:35:36;0.55;;;0.55;;
62509;SDS011;48558;48.242;11.654;2023-04-28T21:39:54;0.43;;;0.43;;
62509;SDS011;48558;48.242;11.654;2023-04-28T21:44:07;0.22;;;0.22;;
62509;SDS011;48558;48.242;11.654;2023-04-28T21:48:20;0.30;;;0.30;;
62509;SDS011;48558;48.242;11.654;2023-04-28T21:52:32;0.20;;;0.20;;
62509;SDS011;48558;48.242;11.654;2023-04-28T21:56:45;0.32;;;0.32;;
62509;SDS011;48558;48.242;11.654;2023-04-28T22:00:57;0.73;;;0.55;;
62509;SDS011;48558;48.242;11.654;2023-04-28T22:05:10;0.20;;;0.20;;
62509;SDS011;48558;48.242;11.654;2023-04-28T22:09:23;0.30;;;0.30;;
62509;SDS011;48558;48.242;11.654;2023-04-28T22:13:45;0.30;;;0.30;;
62509;SDS011;48558;48.242;11.654;2023-04-28T22:17:58;0.28;;;0.28;;
62509;SDS011;48558;48.242;11.654;2023-04-28T22:22:11;0.32;;;0.32;;
62509;SDS011;48558;48.242;11.654;2023-04-28T22:26:33;0.25;;;0.25;;
62509;SDS011;48558;48.242;11.654;2023-04-28T22:30:47;0.40;;;0.40;;
62509;SDS011;48558;48.242;11.654;2023-04-28T22:34:59;0.32;;;0.32;;
62509;SDS011;48558;48.242;11.654;2023-04-28T22:39:12;0.30;;;0.30;;
62509;SDS011;48558;48.242;11.654;2023-04-28T22:43:24;0.20;;;0.20;;
62509;SDS011;48558;48.242;11.654;2023-04-28T22:47:39;0.30;;;0.30;;
62509;SDS011;48558;48.242;11.654;2023-04-28T22:51:52;1.48;;;0.30;;
62509;SDS011;48558;48.242;11.654;2023-04-28T22:56:04;0.10;;;0.10;;
62509;SDS011;48558;48.242;11.654;2023-04-28T23:00:17;0.13;;;0.13;;
62509;SDS011;48558;48.242;11.654;2023-04-28T23:04:38;0.20;;;0.20;;
62509;SDS011;48558;48.242;11.654;2023-04-28T23:08:51;0.17;;;0.17;;
62509;SDS011;48558;48.242;11.654;2023-04-28T23:13:03;0.20;;;0.20;;
62509;SDS011;48558;48.242;11.654;2023-04-28T23:17:26;0.73;;;0.43;;
62509;SDS011;48558;48.242;11.654;2023-04-28T23:21:38;0.17;;;0.17;;
62509;SDS011;48558;48.242;11.654;2023-04-28T23:25:51;0.20;;;0.20;;
62509;SDS011;48558;48.242;11.654;2023-04-28T23:30:03;0.50;;;0.30;;
62509;SDS011;48558;48.242;11.654;2023-04-28T23:34:17;0.30;;;0.30;;
62509;SDS011;48558;48.242;11.654;2023-04-28T23:38:30;0.10;;;0.10;;
62509;SDS011;48558;48.242;11.654;2023-04-28T23:42:44;0.05;;;0.05;;
62509;SDS011;48558;48.242;11.654;2023-04-28T23:46:56;0.13;;;0.13;;
62509;SDS011;48558;48.242;11.654;2023-04-28T23:51:08;0.10;;;0.10;;
62509;SDS011;48558;48.242;11.654;2023-04-28T23:55:24;0.10;;;0.10;;
62509;SDS011;48558;48.242;11.654;2023-04-28T23:59:36;0.30;;;0.30;;
